Time;durP1;ratioP1;P1;durP2;ratioP2;P2;SDS_P1;SDS_P2;PMS_P1;PMS_P2;Temp;Humidity;BMP_temperature;BMP_pressure;BME280_temperature;BME280_humidity;BME280_pressure;Samples;Min_cycle;Max_cycle;Signal;HPM_P1;HPM_P2
2022/12/27 00:01:45;;;;;;;13.43;1.88;;;7.60;99.90;;;;;;5054190;28;20021;-63
2022/12/27 00:04:11;;;;;;;16.38;2.20;;;7.50;99.90;;;;;;5054434;28;20086;-64
2022/12/27 00:06:37;;;;;;;16.25;3.20;;;7.40;99.90;;;;;;5054275;28;20167;-64
2022/12/27 00:09:04;;;;;;;18.20;2.40;;;7.40;99.90;;;;;;5054018;28;20043;-63
2022/12/27 00:11:30;;;;;;;11.07;2.10;;;7.40;99.90;;;;;;5054089;28;20032;-63
2022/12/27 00:14:00;;;;;;;15.80;1.67;;;7.40;99.90;;;;;;5053973;28;20044;-63
2022/12/27 00:16:25;;;;;;;8.48;1.50;;;7.40;99.90;;;;;;5053805;28;20029;-63
2022/12/27 00:18:51;;;;;;;9.90;1.67;;;7.50;99.90;;;;;;5053931;28;20116;-64
2022/12/27 00:21:18;;;;;;;10.35;1.70;;;7.60;99.90;;;;;;5053831;28;20378;-64
2022/12/27 00:23:47;;;;;;;11.05;1.40;;;7.60;99.90;;;;;;5053852;28;20090;-63
2022/12/27 00:26:20;;;;;;;7.53;1.27;;;7.60;99.90;;;;;;5053924;28;20025;-63
2022/12/27 00:28:47;;;;;;;10.10;2.15;;;7.60;99.90;;;;;;5053877;28;20067;-63
2022/12/27 00:31:13;;;;;;;12.93;1.98;;;7.50;99.90;;;;;;5053815;28;20517;-64
2022/12/27 00:33:41;;;;;;;9.30;1.40;;;7.60;99.90;;;;;;5053641;28;20045;-66
2022/12/27 00:36:11;;;;;;;9.65;1.55;;;7.60;99.90;;;;;;5053982;28;20083;-63
2022/12/27 00:38:36;;;;;;;8.60;1.58;;;7.70;99.90;;;;;;5052457;28;20184;-63
2022/12/27 00:41:03;;;;;;;18.15;2.80;;;7.70;99.90;;;;;;5053581;28;20390;-64
2022/12/27 00:43:29;;;;;;;4.85;1.10;;;7.80;99.90;;;;;;5053614;28;20130;-63
2022/12/27 00:45:54;;;;;;;14.50;2.30;;;7.80;99.90;;;;;;5053502;28;20025;-62
2022/12/27 00:48:20;;;;;;;7.28;1.65;;;7.80;99.90;;;;;;5053275;28;20497;-63
2022/12/27 00:50:46;;;;;;;7.35;1.58;;;7.80;99.90;;;;;;5053543;28;20032;-63
2022/12/27 00:53:12;;;;;;;7.35;1.23;;;7.80;99.90;;;;;;5054029;28;20056;-63
2022/12/27 00:55:42;;;;;;;15.30;1.67;;;7.80;99.90;;;;;;5053669;28;20025;-62
2022/12/27 00:58:08;;;;;;;14.38;1.63;;;7.70;99.90;;;;;;5053366;28;20021;-63
2022/12/27 01:00:33;;;;;;;5.93;1.67;;;7.70;99.90;;;;;;5053253;28;20032;-64
2022/12/27 01:02:59;;;;;;;10.05;1.73;;;7.60;99.90;;;;;;5053448;28;20102;-64
2022/12/27 01:05:25;;;;;;;11.52;1.83;;;7.60;99.90;;;;;;5054493;28;20522;-63
2022/12/27 01:07:50;;;;;;;15.35;1.70;;;7.50;99.90;;;;;;5054197;28;20036;-63
2022/12/27 01:10:16;;;;;;;9.90;1.48;;;7.50;99.90;;;;;;5054043;28;20029;-62
2022/12/27 01:12:42;;;;;;;14.10;1.77;;;7.50;99.90;;;;;;5053799;28;20029;-63
2022/12/27 01:15:09;;;;;;;12.02;1.95;;;7.40;99.90;;;;;;5053783;28;20044;-63
2022/12/27 01:17:35;;;;;;;12.40;2.15;;;7.50;99.90;;;;;;5052828;28;20028;-63
2022/12/27 01:20:00;;;;;;;19.27;2.30;;;7.40;99.90;;;;;;5052969;28;20025;-63
2022/12/27 01:22:26;;;;;;;18.40;1.98;;;7.40;99.90;;;;;;5052830;28;20069;-63
2022/12/27 01:24:52;;;;;;;7.32;1.98;;;7.30;99.90;;;;;;5052748;28;20024;-63
2022/12/27 01:27:18;;;;;;;8.48;1.35;;;7.30;99.90;;;;;;5052758;28;20021;-65
2022/12/27 01:29:43;;;;;;;12.90;1.90;;;7.30;99.90;;;;;;5052851;28;20036;-63
2022/12/27 01:32:09;;;;;;;15.63;1.63;;;7.30;99.90;;;;;;5052602;28;20055;-63
2022/12/27 01:34:35;;;;;;;11.85;1.55;;;7.20;99.90;;;;;;5052746;28;20513;-63
2022/12/27 01:37:00;;;;;;;4.82;1.30;;;7.20;99.90;;;;;;5051339;28;20029;-63
2022/12/27 01:39:26;;;;;;;6.95;1.55;;;7.20;99.90;;;;;;5052356;28;20017;-64
2022/12/27 01:44:41;;;;;;;12.57;2.85;;;7.20;99.90;;;;;;5052412;28;20040;-62
2022/12/27 01:47:41;;;;;;;12.73;1.83;;;7.10;99.90;;;;;;5052280;28;20032;-62
2022/12/27 01:50:20;;;;;;;19.00;1.67;;;7.10;99.90;;;;;;5051936;28;20021;-63
2022/12/27 01:52:49;;;;;;;8.40;1.73;;;7.00;1.00;;;;;;5052289;28;20508;-63
2022/12/27 01:55:21;;;;;;;11.77;2.05;;;7.00;1.00;;;;;;5052413;28;20462;-63
2022/12/27 01:57:49;;;;;;;7.00;2.28;;;6.90;1.00;;;;;;5052042;28;20501;-63
2022/12/27 02:00:15;;;;;;;17.88;2.20;;;6.90;1.00;;;;;;5051985;28;20033;-63
2022/12/27 02:02:41;;;;;;;18.90;1.80;;;6.90;1.00;;;;;;5052021;28;20051;-63
2022/12/27 02:05:10;;;;;;;11.60;2.20;;;6.90;1.00;;;;;;5052017;28;20112;-63
2022/12/27 02:08:02;;;;;;;13.57;2.38;;;6.90;1.00;;;;;;5051954;28;20051;-62
2022/12/27 02:10:28;;;;;;;7.93;1.75;;;6.80;1.00;;;;;;5050605;28;20090;-62
2022/12/27 02:12:55;;;;;;;15.88;1.67;;;6.80;1.00;;;;;;5051720;28;20072;-62
2022/12/27 02:15:21;;;;;;;12.80;1.85;;;6.70;1.00;;;;;;5050600;28;20044;-62
2022/12/27 02:17:46;;;;;;;12.48;1.95;;;6.60;1.00;;;;;;5051661;28;20405;-63
2022/12/27 02:20:16;;;;;;;13.82;2.13;;;6.50;1.00;;;;;;5051655;28;20036;-63
2022/12/27 02:26:04;;;;;;;8.73;1.55;;;6.30;99.90;;;;;;5051511;28;20040;-63
2022/12/27 02:28:45;;;;;;;13.82;1.90;;;6.20;99.90;;;;;;5051814;28;20440;-63
2022/12/27 02:31:23;;;;;;;11.73;1.45;;;6.10;99.90;;;;;;5051663;28;20052;-62
2022/12/27 02:33:52;;;;;;;10.57;1.58;;;6.10;99.90;;;;;;5051503;28;20076;-63
2022/12/27 02:36:26;;;;;;;11.27;1.83;;;6.00;99.90;;;;;;5051462;28;20044;-63
2022/12/27 02:38:56;;;;;;;11.82;2.22;;;6.00;99.90;;;;;;5051312;28;20041;-63
2022/12/27 02:58:43;;;;;;;11.25;1.55;;;5.40;99.90;;;;;;5051173;28;20056;-64
2022/12/27 03:04:14;;;;;;;15.98;1.92;;;5.30;1.00;;;;;;5051759;28;20028;-64
2022/12/27 03:06:49;;;;;;;9.60;2.05;;;5.30;99.90;;;;;;5051578;28;20062;-63
2022/12/27 03:18:10;;;;;;;7.15;1.50;;;5.30;2.20;;;;;;5050812;28;20528;-63
2022/12/27 03:26:11;;;;;;;14.93;2.03;;;5.60;99.90;;;;;;5051108;28;20032;-63
2022/12/27 03:34:38;;;;;;;11.15;1.45;;;6.30;99.90;;;;;;5050848;28;20623;-62
2022/12/27 03:40:22;;;;;;;12.95;1.38;;;6.10;1.00;;;;;;5050721;28;20056;-62
2022/12/27 03:43:12;;;;;;;10.20;1.38;;;6.10;1.00;;;;;;5050582;28;20446;-62
2022/12/27 03:49:03;;;;;;;8.70;1.15;;;6.10;83.60;;;;;;5050440;28;20060;-63
2022/12/27 03:51:35;;;;;;;9.18;1.88;;;6.10;1.00;;;;;;5050526;28;20669;-63
2022/12/27 03:54:09;;;;;;;13.00;1.95;;;6.10;1.00;;;;;;5050864;28;20037;-62
2022/12/27 03:56:36;;;;;;;17.10;1.95;;;6.20;99.90;;;;;;5050879;28;20025;-64
2022/12/27 03:59:03;;;;;;;14.60;1.85;;;6.40;99.90;;;;;;5049187;28;20445;-62
2022/12/27 04:01:29;;;;;;;11.45;1.65;;;6.50;99.90;;;;;;5050584;28;20381;-63
2022/12/27 04:03:55;;;;;;;12.38;1.67;;;6.50;99.90;;;;;;5050559;28;20029;-63
2022/12/27 04:06:20;;;;;;;5.20;1.58;;;6.50;99.90;;;;;;5050435;28;20025;-63
2022/12/27 04:36:07;;;;;;;6.72;1.67;;;5.80;99.90;;;;;;5039508;28;20554;-62
2022/12/27 04:38:33;;;;;;;9.30;1.80;;;5.90;99.90;;;;;;5038545;28;20032;-64
2022/12/27 04:55:21;;;;;;;10.40;1.38;;;5.70;99.90;;;;;;5033493;28;20041;-62
2022/12/27 04:57:47;;;;;;;8.57;1.25;;;5.70;1.00;;;;;;5051618;28;20091;-62
2022/12/27 05:03:00;;;;;;;6.43;1.20;;;5.80;99.90;;;;;;5048176;28;20117;-62
2022/12/27 05:05:26;;;;;;;15.18;2.15;;;5.80;99.90;;;;;;5053058;28;20024;-64
2022/12/27 05:16:06;;;;;;;7.70;1.25;;;5.70;1.00;;;;;;5052857;28;20116;-62
2022/12/27 05:18:31;;;;;;;5.88;1.38;;;5.70;99.90;;;;;;5034673;28;20108;-63
2022/12/27 05:21:02;;;;;;;15.93;2.55;;;5.60;99.90;;;;;;5032858;28;20022;-64
2022/12/27 05:26:20;;;;;;;6.63;1.52;;;5.60;99.90;;;;;;5032782;28;20535;-63
2022/12/27 05:28:47;;;;;;;16.58;1.50;;;5.50;99.90;;;;;;5034306;28;20053;-64
2022/12/27 05:31:13;;;;;;;9.05;1.60;;;5.60;99.90;;;;;;5047906;28;20021;-64
2022/12/27 05:33:39;;;;;;;8.93;1.50;;;5.70;99.90;;;;;;5032959;28;20087;-64
2022/12/27 05:36:05;;;;;;;15.10;1.65;;;5.70;99.90;;;;;;5033138;28;20034;-63
2022/12/27 05:38:31;;;;;;;12.05;1.35;;;5.80;1.00;;;;;;5035480;28;20370;-63
2022/12/27 05:41:01;;;;;;;10.65;1.63;;;5.80;81.00;;;;;;5051605;28;20052;-63
2022/12/27 05:43:28;;;;;;;20.15;2.75;;;6.00;99.90;;;;;;5036993;28;20037;-62
2022/12/27 05:45:54;;;;;;;6.93;1.30;;;6.10;99.90;;;;;;5032710;28;20032;-63
2022/12/27 05:48:21;;;;;;;12.02;1.38;;;6.10;99.90;;;;;;5042129;28;20029;-63
2022/12/27 05:50:47;;;;;;;17.05;1.80;;;6.30;99.90;;;;;;5047616;28;20042;-63
2022/12/27 05:53:13;;;;;;;16.45;2.10;;;6.30;99.90;;;;;;5033824;28;20033;-63
2022/12/27 05:55:39;;;;;;;18.00;2.15;;;6.20;99.90;;;;;;5047663;28;20068;-63
2022/12/27 05:58:04;;;;;;;13.18;2.33;;;6.10;99.90;;;;;;5038119;28;20061;-63
2022/12/27 06:00:30;;;;;;;8.05;1.90;;;6.10;99.90;;;;;;5032365;28;20549;-65
2022/12/27 06:02:56;;;;;;;8.05;1.50;;;6.20;99.90;;;;;;5032148;28;20026;-64
2022/12/27 06:05:21;;;;;;;12.70;1.30;;;6.20;99.90;;;;;;5032339;28;20026;-63
2022/12/27 06:07:47;;;;;;;13.02;1.70;;;6.20;99.90;;;;;;5033391;28;20075;-64
2022/12/27 06:10:13;;;;;;;16.33;2.15;;;6.30;1.00;;;;;;5032281;28;20029;-64
2022/12/27 06:12:38;;;;;;;7.40;1.50;;;6.40;99.90;;;;;;5037926;28;20034;-64
2022/12/27 06:15:05;;;;;;;9.93;1.10;;;6.50;99.90;;;;;;5051871;28;20453;-63
2022/12/27 06:17:31;;;;;;;16.90;1.85;;;6.70;99.90;;;;;;5041747;28;20029;-63
2022/12/27 06:19:57;;;;;;;11.05;1.80;;;6.80;30.00;;;;;;5032175;28;20026;-63
2022/12/27 06:22:23;;;;;;;11.98;1.45;;;7.00;99.90;;;;;;5032214;28;20408;-68
2022/12/27 06:24:49;;;;;;;13.80;1.60;;;7.10;99.90;;;;;;5032645;28;20025;-63
2022/12/27 06:27:14;;;;;;;7.25;1.23;;;7.70;1.00;;;;;;5031258;28;20049;-63
2022/12/27 06:29:40;;;;;;;7.70;1.38;;;7.80;99.90;;;;;;5032390;28;20029;-63
2022/12/27 06:32:06;;;;;;;8.02;1.20;;;7.80;99.90;;;;;;5042251;28;20497;-65
2022/12/27 06:34:31;;;;;;;4.72;1.08;;;7.90;1.00;;;;;;5049149;28;20098;-64
2022/12/27 06:36:57;;;;;;;4.55;1.25;;;7.80;99.90;;;;;;5039319;28;20036;-64
2022/12/27 06:39:23;;;;;;;6.28;1.30;;;7.80;1.00;;;;;;5032779;28;20037;-64
2022/12/27 06:41:49;;;;;;;9.02;0.85;;;7.60;99.90;;;;;;5031672;28;20686;-64
2022/12/27 06:44:15;;;;;;;4.38;0.93;;;7.60;19.30;;;;;;5031699;28;20068;-64
2022/12/27 06:46:41;;;;;;;9.20;1.27;;;7.50;99.90;;;;;;5033720;28;20556;-63
2022/12/27 06:49:08;;;;;;;6.18;1.05;;;7.40;99.90;;;;;;5033034;28;20024;-63
2022/12/27 06:51:34;;;;;;;10.20;1.10;;;7.30;99.90;;;;;;5031551;28;20033;-64
2022/12/27 06:53:59;;;;;;;6.88;1.00;;;7.20;99.90;;;;;;5033975;28;20497;-64
2022/12/27 06:56:25;;;;;;;8.27;1.00;;;7.10;99.90;;;;;;5036997;28;20456;-63
2022/12/27 06:58:51;;;;;;;7.28;1.05;;;7.00;99.90;;;;;;5039943;28;20374;-64
2022/12/27 07:01:25;;;;;;;11.23;1.30;;;7.10;99.90;;;;;;5033192;28;20080;-66
2022/12/27 07:03:59;;;;;;;2.25;0.75;;;7.10;99.90;;;;;;5031534;28;20053;-65
2022/12/27 07:06:28;;;;;;;5.57;1.38;;;7.10;99.90;;;;;;5031385;28;20021;-65
2022/12/27 07:08:55;;;;;;;6.25;1.30;;;7.20;1.00;;;;;;5033015;28;20112;-64
2022/12/27 07:11:22;;;;;;;9.48;1.25;;;7.40;99.90;;;;;;5031341;28;20480;-64
2022/12/27 07:13:50;;;;;;;9.15;1.48;;;7.40;99.90;;;;;;5030980;28;20038;-65
2022/12/27 07:16:19;;;;;;;5.97;1.33;;;7.30;61.10;;;;;;5032070;28;20020;-65
2022/12/27 07:18:45;;;;;;;10.02;1.27;;;7.40;99.90;;;;;;5030534;28;20037;-64
2022/12/27 07:21:14;;;;;;;14.48;2.05;;;7.50;99.90;;;;;;5031094;28;20021;-64
2022/12/27 07:23:40;;;;;;;11.35;1.25;;;7.60;99.90;;;;;;5029813;28;20034;-64
2022/12/27 07:26:11;;;;;;;13.25;1.38;;;7.80;1.00;;;;;;5028387;28;20052;-65
2022/12/27 07:28:37;;;;;;;11.18;1.45;;;8.00;1.00;;;;;;5029930;28;20460;-65
2022/12/27 07:31:12;;;;;;;9.82;1.48;;;8.10;1.00;;;;;;5031666;28;20029;-64
2022/12/27 07:33:38;;;;;;;18.75;1.60;;;8.20;1.00;;;;;;5016884;28;20041;-65
2022/12/27 07:36:08;;;;;;;10.38;1.45;;;8.30;99.90;;;;;;5028967;28;20482;-65
2022/12/27 07:38:34;;;;;;;12.10;1.58;;;8.30;99.90;;;;;;5029166;28;20072;-64
2022/12/27 07:41:01;;;;;;;18.40;1.65;;;8.40;99.90;;;;;;5031135;28;20142;-65
2022/12/27 07:43:32;;;;;;;8.80;1.15;;;8.40;1.00;;;;;;5038273;28;20405;-64
2022/12/27 07:46:13;;;;;;;7.25;1.15;;;8.40;99.90;;;;;;5033035;28;20535;-64
2022/12/27 07:48:46;;;;;;;3.67;1.38;;;8.40;99.90;;;;;;5039853;28;20520;-64
2022/12/27 07:51:12;;;;;;;8.32;1.45;;;8.30;99.90;;;;;;5054793;28;20044;-64
2022/12/27 07:53:38;;;;;;;7.85;1.10;;;8.30;99.90;;;;;;5045738;28;20120;-64
2022/12/27 07:56:09;;;;;;;11.63;1.85;;;8.30;99.90;;;;;;5034573;28;20117;-64
2022/12/27 07:58:41;;;;;;;10.07;1.23;;;8.30;99.90;;;;;;5034346;28;20037;-64
2022/12/27 08:01:08;;;;;;;4.32;1.35;;;8.20;99.90;;;;;;5040949;28;20033;-66
2022/12/27 08:03:35;;;;;;;11.68;1.60;;;8.30;99.90;;;;;;5038321;28;20029;-66
2022/12/27 08:06:01;;;;;;;12.02;1.73;;;8.50;21.80;;;;;;5034560;28;20025;-63
2022/12/27 08:08:34;;;;;;;7.05;1.77;;;8.50;99.90;;;;;;5034417;28;20026;-66
2022/12/27 08:11:00;;;;;;;9.57;1.55;;;8.50;99.90;;;;;;5034765;28;20049;-64
2022/12/27 08:13:25;;;;;;;9.77;1.58;;;8.60;99.90;;;;;;5033135;28;20065;-65
2022/12/27 08:15:52;;;;;;;6.60;1.48;;;8.70;99.90;;;;;;5039034;28;20033;-66
2022/12/27 08:18:18;;;;;;;11.07;1.75;;;8.80;99.90;;;;;;5052784;28;20025;-65
2022/12/27 08:20:44;;;;;;;12.25;1.58;;;9.00;99.90;;;;;;5054252;28;20047;-64
2022/12/27 08:23:09;;;;;;;14.10;1.40;;;9.10;91.20;;;;;;5052828;28;20033;-65
2022/12/27 08:25:35;;;;;;;14.27;1.83;;;9.20;1.00;;;;;;5045409;28;20033;-64
2022/12/27 08:28:06;;;;;;;8.93;1.48;;;9.30;99.90;;;;;;5034365;28;20025;-66
2022/12/27 08:30:33;;;;;;;6.35;1.13;;;9.50;99.90;;;;;;5034082;28;20112;-65
2022/12/27 08:33:03;;;;;;;7.30;1.30;;;9.60;65.40;;;;;;5038493;28;20043;-64
2022/12/27 08:35:29;;;;;;;15.13;1.25;;;9.70;99.90;;;;;;5054644;28;20071;-63
2022/12/27 08:37:54;;;;;;;2.55;0.82;;;9.80;1.00;;;;;;5042712;28;20097;-63
2022/12/27 08:40:20;;;;;;;6.47;1.05;;;10.00;99.90;;;;;;5033970;28;20073;-64
2022/12/27 08:42:46;;;;;;;13.68;1.00;;;10.10;99.90;;;;;;5034126;28;20021;-65
2022/12/27 08:45:12;;;;;;;6.47;1.38;;;10.20;99.90;;;;;;5038410;28;20025;-66
2022/12/27 08:47:38;;;;;;;5.88;3.03;;;10.10;99.90;;;;;;5044049;28;20209;-65
2022/12/27 08:50:04;;;;;;;0.20;0.20;;;9.90;99.90;;;;;;5037383;28;20055;-65
2022/12/27 08:52:30;;;;;;;0.20;0.20;;;9.90;99.90;;;;;;5039011;28;20543;-64
2022/12/27 08:54:56;;;;;;;0.20;0.20;;;10.10;99.90;;;;;;5052801;28;20029;-65
2022/12/27 08:57:22;;;;;;;0.20;0.20;;;10.10;99.90;;;;;;5044630;28;20028;-63
2022/12/27 08:59:47;;;;;;;0.20;0.20;;;10.10;99.90;;;;;;5035983;28;20021;-64
2022/12/27 09:02:13;;;;;;;0.20;0.20;;;10.10;99.90;;;;;;5044315;28;20029;-64
2022/12/27 09:04:39;;;;;;;0.20;0.20;;;10.10;99.90;;;;;;5053425;28;20025;-64
2022/12/27 09:07:04;;;;;;;0.63;0.55;;;10.10;99.90;;;;;;5040381;28;20029;-64
2022/12/27 09:09:30;;;;;;;0.20;0.20;;;10.10;99.90;;;;;;5054039;28;20466;-64
2022/12/27 09:11:56;;;;;;;0.20;0.20;;;10.00;99.90;;;;;;5051946;28;20090;-63
2022/12/27 09:14:22;;;;;;;0.20;0.20;;;10.00;99.90;;;;;;5043140;28;20061;-62
2022/12/27 09:16:48;;;;;;;0.20;0.20;;;10.00;99.90;;;;;;5032959;28;20060;-62
2022/12/27 09:19:13;;;;;;;0.20;0.20;;;10.00;99.90;;;;;;5034065;28;20047;-61
2022/12/27 09:21:40;;;;;;;0.20;0.20;;;10.00;99.90;;;;;;5052903;28;20096;-61
2022/12/27 09:24:10;;;;;;;0.17;0.17;;;10.10;99.90;;;;;;5047483;28;20056;-63
2022/12/27 09:26:37;;;;;;;10.43;4.20;;;10.20;99.90;;;;;;5034872;28;20445;-61
2022/12/27 09:29:03;;;;;;;0.20;0.20;;;10.30;99.90;;;;;;5038464;28;20103;-62
2022/12/27 09:31:29;;;;;;;0.20;0.20;;;10.30;99.90;;;;;;5040543;28;20017;-63
2022/12/27 09:33:56;;;;;;;0.20;0.20;;;10.40;99.90;;;;;;5044385;28;20174;-62
2022/12/27 09:36:25;;;;;;;0.20;0.20;;;10.40;99.90;;;;;;5044898;28;20453;-61
2022/12/27 09:38:52;;;;;;;0.20;0.20;;;10.40;99.90;;;;;;5033453;28;20025;-63
2022/12/27 09:41:43;;;;;;;0.20;0.20;;;10.10;99.90;;;;;;5039079;28;20041;-62
2022/12/27 09:44:15;;;;;;;0.20;0.20;;;9.90;99.90;;;;;;5052823;28;20031;-65
2022/12/27 09:47:02;;;;;;;0.25;0.25;;;9.70;99.90;;;;;;5038910;28;20079;-63
2022/12/27 09:49:48;;;;;;;0.20;0.20;;;9.70;99.90;;;;;;5032621;28;20507;-64
2022/12/27 09:52:33;;;;;;;0.20;0.20;;;9.70;99.90;;;;;;5032539;28;20037;-62
2022/12/27 09:55:31;;;;;;;0.20;0.20;;;9.60;99.90;;;;;;5042581;28;20496;-64
2022/12/27 09:58:12;;;;;;;0.20;0.20;;;9.70;99.90;;;;;;5047973;28;20037;-64
2022/12/27 10:00:38;;;;;;;0.20;0.20;;;9.90;99.90;;;;;;5038716;28;20365;-64
2022/12/27 10:03:05;;;;;;;0.17;0.17;;;10.10;99.90;;;;;;5044996;28;20025;-66
2022/12/27 10:05:33;;;;;;;0.20;0.20;;;10.40;99.90;;;;;;5040595;28;20038;-65
2022/12/27 10:08:20;;;;;;;0.20;0.20;;;10.60;99.90;;;;;;5040982;28;20079;-64
2022/12/27 10:10:52;;;;;;;0.20;0.20;;;10.70;99.90;;;;;;5047155;28;20029;-65
2022/12/27 10:13:52;;;;;;;0.20;0.20;;;10.80;99.90;;;;;;5031870;28;20029;-64
2022/12/27 10:16:39;;;;;;;0.20;0.20;;;10.90;99.90;;;;;;5032060;28;20033;-65
2022/12/27 10:19:22;;;;;;;0.20;0.20;;;11.00;99.90;;;;;;5031880;28;20025;-66
2022/12/27 10:22:15;;;;;;;8.57;3.03;;;11.10;99.90;;;;;;5031798;28;20037;-67
2022/12/27 10:24:49;;;;;;;0.20;0.20;;;11.10;99.90;;;;;;5031732;28;20029;-67
2022/12/27 10:27:23;;;;;;;0.20;0.20;;;11.10;99.90;;;;;;5040766;28;20063;-67
2022/12/27 10:29:55;;;;;;;0.20;0.20;;;11.10;99.90;;;;;;5042813;28;20018;-66
2022/12/27 10:32:21;;;;;;;0.20;0.20;;;11.10;99.90;;;;;;5048448;28;20029;-67
2022/12/27 10:35:00;;;;;;;0.20;0.20;;;11.10;99.90;;;;;;5045988;28;20092;-67
2022/12/27 10:37:26;;;;;;;0.20;0.20;;;11.10;99.90;;;;;;5031758;28;20482;-67
2022/12/27 10:39:52;;;;;;;0.20;0.20;;;11.10;99.90;;;;;;5030742;28;20068;-66
2022/12/27 10:42:40;;;;;;;0.20;0.20;;;11.00;99.90;;;;;;5031402;28;20060;-66
2022/12/27 10:45:26;;;;;;;0.20;0.20;;;11.00;99.90;;;;;;5029960;28;20025;-66
2022/12/27 10:47:54;;;;;;;0.15;0.15;;;11.00;90.50;;;;;;5039922;28;20392;-66
2022/12/27 10:50:23;;;;;;;0.20;0.20;;;11.00;12.60;;;;;;5044419;28;20028;-66
2022/12/27 10:52:50;;;;;;;0.52;0.52;;;11.00;79.30;;;;;;5051429;28;20084;-65
2022/12/27 10:55:37;;;;;;;0.30;0.30;;;10.90;9.80;;;;;;5043518;28;20029;-66
2022/12/27 10:58:37;;;;;;;0.20;0.20;;;11.00;1.00;;;;;;5036481;28;20025;-65
2022/12/27 11:01:03;;;;;;;0.20;0.20;;;11.00;1.00;;;;;;5040668;28;20036;-66
2022/12/27 11:03:29;;;;;;;0.20;0.20;;;11.00;99.90;;;;;;5044893;28;20432;-67
2022/12/27 11:06:04;;;;;;;0.20;0.20;;;11.00;5.30;;;;;;5032539;28;20029;-67
2022/12/27 11:08:30;;;;;;;0.20;0.20;;;11.00;72.90;;;;;;5039722;28;20104;-66
2022/12/27 11:11:15;;;;;;;0.20;0.20;;;11.00;99.30;;;;;;5051929;28;20024;-66
2022/12/27 11:13:41;;;;;;;0.20;0.20;;;11.20;99.90;;;;;;5037535;28;20493;-65
2022/12/27 11:16:39;;;;;;;0.20;0.20;;;11.30;99.90;;;;;;5033753;28;20025;-66
2022/12/27 11:19:05;;;;;;;0.20;0.20;;;11.50;99.90;;;;;;5048000;28;20034;-65
2022/12/27 11:21:36;;;;;;;0.20;0.20;;;11.60;99.90;;;;;;5051497;28;20063;-65
2022/12/27 11:24:03;;;;;;;0.20;0.20;;;11.60;1.00;;;;;;5049464;28;20025;-66
2022/12/27 11:26:38;;;;;;;0.17;0.17;;;11.50;99.90;;;;;;5049293;28;20056;-65
2022/12/27 11:29:04;;;;;;;0.20;0.20;;;11.40;99.90;;;;;;5055471;28;20028;-66
2022/12/27 11:31:46;;;;;;;0.20;0.20;;;11.30;99.90;;;;;;5054216;28;20056;-65
2022/12/27 11:34:14;;;;;;;0.20;0.20;;;11.20;99.90;;;;;;5054897;28;20033;-65
2022/12/27 11:36:43;;;;;;;0.20;0.20;;;11.20;93.60;;;;;;5048922;28;20030;-67
2022/12/27 11:39:42;;;;;;;0.20;0.20;;;11.20;99.90;;;;;;5033684;28;20037;-65
2022/12/27 11:42:24;;;;;;;0.40;0.40;;;11.20;99.90;;;;;;5052786;28;20087;-66
2022/12/27 11:45:21;;;;;;;0.88;0.88;;;11.30;99.90;;;;;;5054982;28;20416;-65
2022/12/27 11:48:01;;;;;;;0.20;0.20;;;11.20;99.90;;;;;;5051650;28;20393;-64
2022/12/27 11:50:27;;;;;;;0.20;0.20;;;11.10;1.00;;;;;;5054792;28;20108;-63
2022/12/27 11:53:05;;;;;;;0.20;0.20;;;11.10;1.00;;;;;;5051720;28;20858;-65
2022/12/27 11:55:43;;;;;;;0.20;0.20;;;11.20;99.90;;;;;;5034498;28;20033;-64
2022/12/27 11:58:40;;;;;;;0.20;0.20;;;11.30;1.00;;;;;;5041281;28;20104;-66
2022/12/27 12:01:39;;;;;;;0.20;0.20;;;11.40;99.90;;;;;;5036789;28;20116;-67
2022/12/27 12:04:05;;;;;;;0.30;0.30;;;11.50;99.90;;;;;;5042508;28;20029;-67
2022/12/27 12:06:31;;;;;;;0.20;0.20;;;11.50;1.00;;;;;;5052844;28;20035;-66
2022/12/27 12:09:13;;;;;;;0.20;0.20;;;11.50;99.90;;;;;;5036424;28;20030;-66
2022/12/27 12:11:39;;;;;;;0.20;0.20;;;11.50;1.00;;;;;;5053381;28;20040;-66
2022/12/27 12:14:39;;;;;;;0.10;0.10;;;11.50;94.60;;;;;;5054147;28;20029;-67
2022/12/27 12:17:29;;;;;;;0.20;0.20;;;11.60;99.90;;;;;;5054230;28;20060;-66
2022/12/27 12:20:20;;;;;;;1.65;1.48;;;11.70;99.90;;;;;;5042446;28;20048;-66
2022/12/27 12:22:57;;;;;;;0.20;0.20;;;11.70;99.90;;;;;;5034717;28;20033;-66
2022/12/27 12:25:42;;;;;;;0.20;0.20;;;11.60;99.90;;;;;;5034284;28;20064;-67
2022/12/27 12:28:44;;;;;;;0.20;0.20;;;11.50;17.90;;;;;;5035948;28;20540;-66
2022/12/27 12:31:22;;;;;;;0.20;0.20;;;11.50;99.90;;;;;;5046592;28;20061;-67
2022/12/27 12:33:54;;;;;;;0.30;0.30;;;11.50;99.90;;;;;;5052689;28;20090;-66
2022/12/27 12:36:44;;;;;;;0.20;0.20;;;11.50;1.00;;;;;;5033678;28;20026;-66
2022/12/27 12:39:19;;;;;;;0.30;0.30;;;11.70;99.90;;;;;;5033970;28;20460;-66
2022/12/27 12:41:55;;;;;;;0.20;0.20;;;11.70;99.90;;;;;;5043677;28;20120;-64
2022/12/27 12:45:19;;;;;;;0.20;0.20;;;11.70;1.00;;;;;;5040923;28;20021;-66
2022/12/27 12:48:16;;;;;;;0.20;0.20;;;11.90;99.90;;;;;;4989237;28;20042;-63
2022/12/27 12:51:18;;;;;;;0.20;0.20;;;11.90;99.90;;;;;;4991175;28;20102;-65
2022/12/27 12:53:57;;;;;;;0.20;0.20;;;12.00;1.00;;;;;;5031722;28;20433;-66
2022/12/27 12:56:31;;;;;;;0.25;0.25;;;12.00;1.00;;;;;;5050948;28;20021;-65
2022/12/27 12:59:24;;;;;;;0.20;0.20;;;12.00;99.90;;;;;;5033634;28;20037;-66
2022/12/27 13:01:56;;;;;;;0.20;0.20;;;12.00;99.90;;;;;;5033648;28;20027;-66
2022/12/27 13:04:22;;;;;;;0.20;0.20;;;12.00;99.90;;;;;;5048619;28;20021;-66
2022/12/27 13:07:05;;;;;;;0.20;0.20;;;11.90;1.00;;;;;;5053313;28;20035;-66
2022/12/27 13:09:58;;;;;;;0.65;0.65;;;11.80;1.00;;;;;;5045132;28;20029;-64
2022/12/27 13:12:30;;;;;;;0.20;0.20;;;11.80;1.00;;;;;;5032981;28;20014;-65
2022/12/27 13:15:16;;;;;;;0.20;0.20;;;11.80;1.00;;;;;;5033007;28;20493;-65
2022/12/27 13:18:17;;;;;;;1.33;1.23;;;11.70;99.90;;;;;;5049181;28;20040;-65
2022/12/27 13:21:09;;;;;;;0.20;0.20;;;11.70;99.90;;;;;;5048966;28;20049;-65
2022/12/27 13:24:11;;;;;;;0.20;0.20;;;11.80;99.90;;;;;;5032695;28;20032;-65
2022/12/27 13:27:11;;;;;;;0.20;0.20;;;11.80;99.90;;;;;;5035235;28;20056;-65
2022/12/27 13:29:56;;;;;;;0.20;0.20;;;11.80;99.90;;;;;;5051634;28;20029;-66
2022/12/27 13:32:49;;;;;;;0.25;0.25;;;11.80;99.90;;;;;;5032850;28;20026;-65
2022/12/27 13:35:39;;;;;;;0.30;0.30;;;11.80;99.90;;;;;;5032145;28;20037;-68
2022/12/27 13:38:07;;;;;;;0.20;0.20;;;11.70;99.90;;;;;;5035113;28;20032;-66
2022/12/27 13:41:10;;;;;;;0.50;0.50;;;11.70;99.90;;;;;;5037939;28;20059;-68
2022/12/27 13:44:01;;;;;;;0.20;0.20;;;11.80;99.90;;;;;;5049120;28;20029;-67
2022/12/27 13:46:43;;;;;;;0.20;0.20;;;12.00;99.90;;;;;;5049876;28;20032;-67
2022/12/27 13:49:27;;;;;;;0.20;0.20;;;11.90;99.90;;;;;;5046303;28;20082;-67
2022/12/27 13:52:00;;;;;;;0.20;0.20;;;12.00;99.90;;;;;;5049419;28;20021;-68
2022/12/27 13:54:45;;;;;;;0.20;0.20;;;12.20;62.40;;;;;;5033887;28;20047;-67
2022/12/27 13:57:29;;;;;;;0.20;0.20;;;12.70;11.80;;;;;;5041958;28;20025;-67
2022/12/27 14:00:21;;;;;;;0.13;0.13;;;13.10;1.00;;;;;;5032297;28;20639;-67
2022/12/27 14:02:55;;;;;;;0.57;0.57;;;13.50;1.00;;;;;;5049567;28;20457;-66
2022/12/27 14:05:36;;;;;;;0.20;0.20;;;13.60;99.90;;;;;;5050513;28;20029;-66
2022/12/27 14:08:20;;;;;;;0.20;0.20;;;13.30;99.90;;;;;;5044230;28;20051;-66
2022/12/27 14:10:49;;;;;;;0.20;0.20;;;12.90;99.90;;;;;;5041741;28;20025;-66
2022/12/27 14:13:38;;;;;;;0.10;0.10;;;12.60;99.90;;;;;;5045068;28;20651;-66
2022/12/27 14:16:26;;;;;;;0.20;0.20;;;12.50;99.90;;;;;;5033320;28;20045;-65
2022/12/27 14:19:11;;;;;;;0.20;0.20;;;12.50;1.00;;;;;;5041409;28;20029;-65
2022/12/27 14:22:01;;;;;;;0.20;0.20;;;12.80;99.90;;;;;;5050764;28;20070;-67
2022/12/27 14:25:14;;;;;;;0.45;0.45;;;12.90;99.90;;;;;;5031748;28;20022;-66
2022/12/27 14:28:14;;;;;;;0.40;0.40;;;12.80;99.90;;;;;;5045460;28;20496;-65
2022/12/27 14:31:14;;;;;;;0.20;0.20;;;12.80;99.90;;;;;;5036063;28;20037;-66
2022/12/27 14:34:07;;;;;;;0.20;0.20;;;12.70;99.90;;;;;;5048793;28;20039;-66
2022/12/27 14:36:38;;;;;;;0.30;0.30;;;12.40;99.90;;;;;;5036276;28;20040;-66
2022/12/27 14:39:41;;;;;;;0.20;0.20;;;12.20;1.00;;;;;;5033583;28;20026;-64
2022/12/27 14:42:13;;;;;;;0.20;0.20;;;12.20;1.00;;;;;;5047529;28;20040;-65
2022/12/27 14:44:56;;;;;;;0.30;0.30;;;12.10;1.00;;;;;;5046421;28;20032;-64
2022/12/27 14:47:47;;;;;;;0.20;0.20;;;12.10;1.00;;;;;;5031485;28;20032;-64
2022/12/27 14:50:37;;;;;;;0.20;0.20;;;12.00;1.00;;;;;;5043574;28;20112;-64
2022/12/27 14:53:15;;;;;;;0.30;0.30;;;12.00;1.00;;;;;;5029494;28;20025;-66
2022/12/27 14:56:00;;;;;;;0.20;0.20;;;12.00;1.00;;;;;;5050183;28;20059;-65
2022/12/27 14:58:44;;;;;;;0.20;0.20;;;11.90;1.00;;;;;;5049947;28;20063;-65
2022/12/27 15:01:36;;;;;;;0.30;0.30;;;12.00;1.00;;;;;;5030620;28;20061;-66
2022/12/27 15:04:25;;;;;;;0.20;0.20;;;12.00;1.00;;;;;;5031538;28;20028;-65
2022/12/27 15:07:09;;;;;;;0.20;0.20;;;12.00;1.00;;;;;;5039267;28;20068;-65
2022/12/27 15:09:47;;;;;;;0.22;0.22;;;11.90;1.00;;;;;;5031984;28;20478;-65
2022/12/27 15:12:40;;;;;;;0.20;0.20;;;11.90;1.00;;;;;;5032678;28;20100;-65